Time;durP1;ratioP1;P1;durP2;ratioP2;P2;SDS_P1;SDS_P2;PMS_P1;PMS_P2;Temp;Humidity;BMP_temperature;BMP_pressure;BME280_temperature;BME280_humidity;BME280_pressure;Samples;Min_cycle;Max_cycle;Signal;HPM_P1;HPM_P2
2023/04/13 00:00:39;;;;;;;6.82;2.38;;;6.50;99.90;;;;;;5154691;27;20035;-58
2023/04/13 00:03:05;;;;;;;3.95;2.20;;;6.50;99.90;;;;;;5142523;27;20488;-58
2023/04/13 00:05:33;;;;;;;8.07;2.08;;;6.50;99.90;;;;;;5138734;27;20069;-59
2023/04/13 00:08:01;;;;;;;4.95;2.60;;;6.50;99.90;;;;;;5118358;27;20476;-59
2023/04/13 00:10:30;;;;;;;5.47;2.45;;;6.50;99.90;;;;;;5135923;27;20468;-59
2023/04/13 00:12:57;;;;;;;5.15;2.63;;;6.50;99.90;;;;;;5154539;27;20081;-59
2023/04/13 00:15:24;;;;;;;4.93;2.50;;;6.50;99.90;;;;;;5154388;27;20034;-59
2023/04/13 00:17:50;;;;;;;4.32;2.20;;;6.50;99.90;;;;;;5118478;27;20047;-59
2023/04/13 00:20:16;;;;;;;3.78;2.08;;;6.50;99.90;;;;;;5153992;27;20057;-59
2023/04/13 00:22:43;;;;;;;3.88;2.20;;;6.60;99.90;;;;;;5154122;27;20408;-59
2023/04/13 00:25:10;;;;;;;10.27;2.60;;;6.60;99.90;;;;;;5153975;27;20053;-59
2023/04/13 00:27:40;;;;;;;7.50;2.67;;;6.60;99.90;;;;;;5153778;27;20396;-60
2023/04/13 00:30:08;;;;;;;2.85;2.55;;;6.60;99.90;;;;;;5135373;27;20043;-59
2023/04/13 00:32:35;;;;;;;5.32;2.53;;;6.70;99.90;;;;;;5153933;27;20046;-59
2023/04/13 00:35:01;;;;;;;4.15;2.25;;;6.70;99.90;;;;;;5154045;27;20040;-59
2023/04/13 00:37:31;;;;;;;4.28;2.20;;;6.70;99.90;;;;;;5135430;27;20078;-59
2023/04/13 00:39:58;;;;;;;3.45;2.55;;;6.70;99.90;;;;;;5153886;27;20053;-59
2023/04/13 00:42:24;;;;;;;4.95;2.60;;;6.80;99.90;;;;;;5134785;27;20095;-59
2023/04/13 00:44:52;;;;;;;3.20;2.10;;;6.80;99.90;;;;;;5143752;27;20035;-59
2023/04/13 00:47:29;;;;;;;4.47;2.97;;;6.80;99.90;;;;;;5151381;27;20031;-59
2023/04/13 00:49:57;;;;;;;4.90;2.90;;;6.80;99.90;;;;;;5123476;27;20107;-59
2023/04/13 00:52:23;;;;;;;6.18;2.80;;;6.80;99.90;;;;;;5127987;27;20039;-59
2023/04/13 00:54:55;;;;;;;4.70;2.95;;;6.80;99.90;;;;;;5135156;27;20104;-57
2023/04/13 00:57:21;;;;;;;3.10;2.63;;;6.80;99.90;;;;;;5135183;27;20035;-57
2023/04/13 00:59:48;;;;;;;6.55;2.58;;;6.80;99.90;;;;;;5153907;27;20031;-57
2023/04/13 01:02:17;;;;;;;3.42;2.90;;;6.80;99.90;;;;;;5153630;27;20062;-58
2023/04/13 01:04:44;;;;;;;5.00;3.33;;;6.70;99.90;;;;;;5135291;27;20031;-57
2023/04/13 01:07:31;;;;;;;6.55;3.05;;;6.70;99.90;;;;;;5135181;27;20087;-58
2023/04/13 01:10:24;;;;;;;5.38;3.50;;;6.70;99.90;;;;;;5153381;27;20066;-58
2023/04/13 01:13:14;;;;;;;5.65;3.50;;;6.60;99.90;;;;;;5134873;27;20472;-58
2023/04/13 01:15:45;;;;;;;7.05;4.20;;;6.50;99.90;;;;;;5153629;27;20039;-58
2023/04/13 01:18:14;;;;;;;6.47;4.35;;;6.50;99.90;;;;;;5153675;27;20098;-57
2023/04/13 01:20:43;;;;;;;5.63;4.30;;;6.50;99.90;;;;;;5134917;27;20050;-58
2023/04/13 01:23:20;;;;;;;5.88;4.38;;;6.50;99.90;;;;;;5134755;27;20051;-58
2023/04/13 01:25:55;;;;;;;7.53;4.07;;;6.50;99.90;;;;;;5153248;27;20072;-58
2023/04/13 01:28:22;;;;;;;4.95;3.60;;;6.50;99.90;;;;;;5153636;27;20054;-58
2023/04/13 01:30:52;;;;;;;5.40;3.50;;;6.40;99.90;;;;;;5134874;27;20409;-58
2023/04/13 01:33:19;;;;;;;5.60;3.95;;;6.40;99.90;;;;;;5153243;27;20047;-58
2023/04/13 01:35:46;;;;;;;6.50;4.50;;;6.40;99.90;;;;;;5153440;27;20074;-57
2023/04/13 01:38:13;;;;;;;7.00;3.30;;;6.30;99.90;;;;;;5153085;27;20511;-58
2023/04/13 01:40:43;;;;;;;5.25;3.50;;;6.40;99.90;;;;;;5153493;27;20065;-58
2023/04/13 01:43:09;;;;;;;4.65;3.30;;;6.40;99.90;;;;;;5153526;27;20055;-60
2023/04/13 01:45:51;;;;;;;4.57;3.30;;;6.30;99.90;;;;;;5153305;27;20399;-58
2023/04/13 01:48:33;;;;;;;5.43;3.88;;;6.30;99.90;;;;;;5153429;27;20058;-58
2023/04/13 01:51:06;;;;;;;3.15;2.65;;;6.30;99.90;;;;;;5152875;27;20600;-58
2023/04/13 01:53:39;;;;;;;6.40;3.00;;;6.30;99.90;;;;;;5153668;27;20046;-57
2023/04/13 01:56:05;;;;;;;4.85;2.88;;;6.30;99.90;;;;;;5138502;27;20034;-58
2023/04/13 01:58:33;;;;;;;6.43;2.85;;;6.20;99.90;;;;;;5138620;27;20472;-57
2023/04/13 02:00:59;;;;;;;5.10;2.90;;;6.20;99.90;;;;;;5156990;27;20038;-57
2023/04/13 02:03:25;;;;;;;4.05;2.90;;;6.10;99.90;;;;;;5156820;27;20037;-57
2023/04/13 02:05:51;;;;;;;3.92;2.70;;;6.20;99.90;;;;;;5155311;27;20078;-57
2023/04/13 02:08:17;;;;;;;4.35;2.88;;;6.30;99.90;;;;;;5151153;27;20136;-58
2023/04/13 02:10:44;;;;;;;6.07;2.70;;;6.20;99.90;;;;;;5120969;27;20392;-57
2023/04/13 02:13:09;;;;;;;4.70;2.60;;;6.20;99.90;;;;;;5156675;27;20039;-57
2023/04/13 02:15:37;;;;;;;6.60;2.83;;;6.20;99.90;;;;;;5156550;27;20049;-57
2023/04/13 02:18:06;;;;;;;3.50;2.45;;;6.20;99.90;;;;;;5156450;27;20046;-57
2023/04/13 02:20:41;;;;;;;3.97;2.67;;;6.20;99.90;;;;;;5156759;27;20141;-57
2023/04/13 02:23:09;;;;;;;5.80;2.60;;;6.20;99.90;;;;;;5156579;27;20043;-57
2023/04/13 02:25:35;;;;;;;4.65;2.38;;;6.20;99.90;;;;;;5156311;27;20039;-57
2023/04/13 02:28:01;;;;;;;4.32;2.85;;;6.30;99.90;;;;;;5156625;27;20031;-57
2023/04/13 02:30:27;;;;;;;3.58;2.70;;;6.30;99.90;;;;;;5137713;27;20055;-58
2023/04/13 02:32:54;;;;;;;5.28;2.58;;;6.20;99.90;;;;;;5156415;27;20038;-58
2023/04/13 02:35:20;;;;;;;3.80;2.30;;;6.20;99.90;;;;;;5137607;27;20046;-58
2023/04/13 02:37:47;;;;;;;7.28;2.53;;;6.20;99.90;;;;;;5156333;27;20042;-57
2023/04/13 02:40:13;;;;;;;5.35;2.40;;;6.30;99.90;;;;;;5156237;27;20035;-57
2023/04/13 02:42:40;;;;;;;5.32;2.10;;;6.20;99.90;;;;;;5156130;27;20128;-57
2023/04/13 02:45:07;;;;;;;4.20;1.98;;;6.20;99.90;;;;;;5155873;27;20391;-58
2023/04/13 02:47:33;;;;;;;4.22;2.25;;;6.20;99.90;;;;;;5156620;27;20082;-58
2023/04/13 02:50:02;;;;;;;5.25;1.92;;;6.10;99.90;;;;;;5156140;27;20038;-58
2023/04/13 02:52:28;;;;;;;7.57;2.25;;;6.30;99.90;;;;;;5142736;27;20419;-58
2023/04/13 02:54:54;;;;;;;3.97;1.55;;;6.10;99.90;;;;;;5135214;27;20095;-58
2023/04/13 02:57:24;;;;;;;2.88;1.80;;;6.20;99.90;;;;;;5135048;27;20070;-58
2023/04/13 02:59:50;;;;;;;5.68;2.15;;;6.20;99.90;;;;;;5118592;27;20500;-58
2023/04/13 03:02:16;;;;;;;4.90;1.52;;;6.20;99.90;;;;;;5135098;27;20039;-58
2023/04/13 03:04:43;;;;;;;4.35;1.73;;;6.30;99.90;;;;;;5116751;27;20537;-58
2023/04/13 03:07:09;;;;;;;3.92;1.67;;;6.30;99.90;;;;;;5134342;27;20028;-58
2023/04/13 03:09:36;;;;;;;2.58;1.38;;;6.30;99.90;;;;;;5134726;27;20389;-58
2023/04/13 03:12:02;;;;;;;5.63;1.70;;;6.40;99.90;;;;;;5134603;27;20047;-58
2023/04/13 03:14:29;;;;;;;4.15;1.83;;;6.30;99.90;;;;;;5133437;27;20126;-58
2023/04/13 03:16:57;;;;;;;2.88;1.60;;;6.40;99.90;;;;;;5134746;27;20039;-58
2023/04/13 03:19:24;;;;;;;4.03;1.30;;;6.30;99.90;;;;;;5134643;27;20035;-58
2023/04/13 03:21:51;;;;;;;2.30;1.55;;;6.30;99.90;;;;;;5134537;27;20039;-58
2023/04/13 03:24:17;;;;;;;6.85;1.67;;;6.30;99.90;;;;;;5134555;27;20121;-58
2023/04/13 03:26:42;;;;;;;4.20;1.70;;;6.30;99.90;;;;;;5115990;27;20141;-58
2023/04/13 03:29:08;;;;;;;2.53;1.48;;;6.30;99.90;;;;;;5134378;27;20136;-58
2023/04/13 03:31:34;;;;;;;1.92;1.30;;;6.30;99.90;;;;;;5121701;27;20070;-58
2023/04/13 03:33:59;;;;;;;4.50;1.63;;;6.40;99.90;;;;;;5141297;27;20122;-58
2023/04/13 03:36:28;;;;;;;4.80;1.80;;;6.30;99.90;;;;;;5141368;27;20030;-58
2023/04/13 03:38:55;;;;;;;4.20;1.65;;;6.20;99.90;;;;;;5155398;27;20034;-58
2023/04/13 03:41:21;;;;;;;4.10;1.65;;;6.30;99.90;;;;;;5149107;27;20031;-58
2023/04/13 03:43:48;;;;;;;6.32;1.83;;;6.30;99.90;;;;;;5147594;27;20047;-58
2023/04/13 03:46:14;;;;;;;2.90;1.70;;;6.40;99.90;;;;;;5133845;27;20484;-58
2023/04/13 03:48:40;;;;;;;8.77;1.70;;;6.40;99.90;;;;;;5149191;27;20060;-58
2023/04/13 03:51:06;;;;;;;3.58;1.80;;;6.40;99.90;;;;;;5135995;27;20046;-58
2023/04/13 03:53:34;;;;;;;2.03;1.40;;;6.30;99.90;;;;;;5138963;27;20048;-58
2023/04/13 03:55:59;;;;;;;4.38;1.85;;;6.40;99.90;;;;;;5154752;27;20087;-58
2023/04/13 03:58:25;;;;;;;2.72;1.50;;;6.30;99.90;;;;;;5135927;27;20422;-58
2023/04/13 04:00:51;;;;;;;3.28;2.05;;;6.40;99.90;;;;;;5143790;27;20041;-59
2023/04/13 04:03:17;;;;;;;4.32;1.92;;;6.40;99.90;;;;;;5134118;27;20039;-58
2023/04/13 04:05:43;;;;;;;3.72;1.70;;;6.60;99.90;;;;;;5134850;27;20508;-58
2023/04/13 04:08:09;;;;;;;2.72;1.80;;;6.40;99.90;;;;;;5150977;27;20034;-58
2023/04/13 04:10:35;;;;;;;3.35;1.80;;;6.50;99.90;;;;;;5139541;27;20100;-58
2023/04/13 04:13:00;;;;;;;4.40;1.70;;;6.40;99.90;;;;;;5150453;27;20039;-58
2023/04/13 04:15:26;;;;;;;4.35;1.92;;;6.50;99.90;;;;;;5137046;27;20135;-58
2023/04/13 04:17:52;;;;;;;3.28;1.60;;;6.40;99.90;;;;;;5152840;27;20038;-58
2023/04/13 04:20:17;;;;;;;2.13;1.67;;;6.40;99.90;;;;;;5142356;27;20031;-59
2023/04/13 04:22:46;;;;;;;3.50;1.98;;;6.40;99.90;;;;;;5114976;27;20140;-58
2023/04/13 04:25:16;;;;;;;2.30;1.70;;;6.40;99.90;;;;;;5134401;27;20466;-58
2023/04/13 04:27:45;;;;;;;2.42;1.73;;;6.40;99.90;;;;;;5147447;27;20039;-58
2023/04/13 04:30:12;;;;;;;;;;;6.30;99.90;;;;;;5133430;27;20051;-58
2023/04/13 04:32:40;;;;;;;3.40;2.00;;;6.40;99.90;;;;;;5137449;27;19919;-58
2023/04/13 04:35:07;;;;;;;5.18;2.08;;;6.40;99.90;;;;;;5150094;27;20110;-58
2023/04/13 04:37:36;;;;;;;4.85;1.90;;;6.30;99.90;;;;;;5133269;27;20046;-58
2023/04/13 04:40:14;;;;;;;;;;;6.30;99.90;;;;;;5133952;27;20043;-58
2023/04/13 04:42:41;;;;;;;5.78;1.65;;;6.30;99.90;;;;;;5125956;27;19923;-58
2023/04/13 04:45:09;;;;;;;3.80;1.63;;;6.40;99.90;;;;;;5133351;27;20484;-59
2023/04/13 04:47:42;;;;;;;6.68;2.03;;;6.30;99.90;;;;;;5138901;27;20027;-58
2023/04/13 04:50:11;;;;;;;4.40;2.00;;;6.20;99.90;;;;;;5153645;27;20080;-59
2023/04/13 04:52:38;;;;;;;3.35;2.10;;;6.30;99.90;;;;;;5154063;27;20047;-58
2023/04/13 04:55:05;;;;;;;3.03;2.00;;;6.20;99.90;;;;;;5145655;27;20039;-59
2023/04/13 04:57:32;;;;;;;5.18;2.22;;;6.10;99.90;;;;;;5133209;27;20477;-58
2023/04/13 04:59:58;;;;;;;2.85;2.13;;;6.20;99.90;;;;;;5115371;28;20426;-59
2023/04/13 05:02:24;;;;;;;3.15;1.90;;;6.10;99.90;;;;;;5132684;27;20039;-59
2023/04/13 05:04:51;;;;;;;3.78;2.20;;;6.10;99.90;;;;;;5133358;28;20358;-59
2023/04/13 05:07:17;;;;;;;4.55;1.88;;;6.30;99.90;;;;;;5129104;27;20031;-59
2023/04/13 05:09:44;;;;;;;4.82;2.53;;;6.30;99.90;;;;;;5120963;27;20051;-59
2023/04/13 05:12:10;;;;;;;3.85;2.70;;;6.20;99.90;;;;;;5146514;27;20070;-59
2023/04/13 05:14:37;;;;;;;3.75;2.92;;;6.30;99.90;;;;;;5120592;28;20038;-58
2023/04/13 05:17:02;;;;;;;5.95;3.10;;;6.30;99.90;;;;;;5150575;27;20046;-59
2023/04/13 05:19:28;;;;;;;6.95;3.20;;;6.30;99.90;;;;;;5153357;27;20114;-58
2023/04/13 05:21:54;;;;;;;4.50;3.33;;;6.20;99.90;;;;;;5141821;27;20045;-59
2023/04/13 05:24:20;;;;;;;4.95;3.35;;;6.30;99.90;;;;;;5133006;27;20042;-58
2023/04/13 05:26:46;;;;;;;6.80;3.70;;;6.30;99.90;;;;;;5135651;27;20037;-58
2023/04/13 05:29:11;;;;;;;5.00;3.78;;;6.40;99.90;;;;;;5141651;27;20031;-59
2023/04/13 05:31:37;;;;;;;5.90;3.58;;;6.40;99.90;;;;;;5128774;27;20676;-58
2023/04/13 05:34:03;;;;;;;7.65;3.95;;;6.50;99.90;;;;;;5157420;27;20034;-58
2023/04/13 05:36:30;;;;;;;5.85;4.10;;;6.50;99.90;;;;;;5134462;27;20047;-58
2023/04/13 05:39:00;;;;;;;6.97;3.80;;;6.40;99.90;;;;;;5137040;27;20114;-58
2023/04/13 05:41:26;;;;;;;7.45;3.88;;;6.50;99.90;;;;;;5117703;27;20043;-58
2023/04/13 05:43:52;;;;;;;4.90;3.78;;;6.60;99.90;;;;;;5151608;27;20042;-58
2023/04/13 05:46:17;;;;;;;6.07;3.85;;;6.70;99.90;;;;;;5157677;27;20095;-58
2023/04/13 05:48:43;;;;;;;7.32;3.30;;;6.90;99.90;;;;;;5157816;27;20035;-58
2023/04/13 05:51:14;;;;;;;5.70;3.33;;;6.90;99.90;;;;;;5130759;27;20529;-58
2023/04/13 05:53:40;;;;;;;4.95;3.45;;;7.00;99.90;;;;;;5152287;27;20038;-58
2023/04/13 05:56:06;;;;;;;5.97;3.58;;;7.20;99.90;;;;;;5125845;27;20082;-57
2023/04/13 05:58:33;;;;;;;5.35;3.47;;;7.30;99.90;;;;;;5136927;27;20043;-57
2023/04/13 06:01:00;;;;;;;7.38;3.28;;;7.40;99.90;;;;;;5121095;27;20175;-57
2023/04/13 06:03:28;;;;;;;6.53;3.00;;;7.50;99.90;;;;;;5142187;27;20043;-58
2023/04/13 06:05:54;;;;;;;6.45;3.55;;;7.60;99.90;;;;;;5128146;27;20723;-58
2023/04/13 06:08:20;;;;;;;6.32;2.70;;;7.70;99.90;;;;;;5113881;27;20035;-58
2023/04/13 06:10:47;;;;;;;7.85;2.95;;;7.60;99.90;;;;;;5147136;27;20964;-58
2023/04/13 06:13:13;;;;;;;11.35;3.80;;;7.60;99.90;;;;;;5128933;27;20738;-57
2023/04/13 06:15:39;;;;;;;7.22;2.72;;;7.50;99.90;;;;;;5146884;27;20050;-57
2023/04/13 06:18:05;;;;;;;5.07;2.58;;;7.60;99.90;;;;;;5123476;27;20054;-57
2023/04/13 06:20:32;;;;;;;7.05;2.60;;;7.50;99.90;;;;;;5146716;27;20171;-57
2023/04/13 06:22:58;;;;;;;5.30;3.10;;;7.50;99.90;;;;;;5137402;27;20392;-58
2023/04/13 06:25:24;;;;;;;4.95;2.40;;;7.40;99.90;;;;;;5149270;27;20110;-59
2023/04/13 06:27:50;;;;;;;5.45;3.00;;;7.30;99.90;;;;;;5146563;27;20117;-57
2023/04/13 06:30:15;;;;;;;8.48;2.63;;;7.30;99.90;;;;;;5141484;27;20126;-58
2023/04/13 06:32:41;;;;;;;5.20;2.60;;;7.30;99.90;;;;;;5135922;27;20115;-57
2023/04/13 06:35:07;;;;;;;5.70;2.70;;;7.30;99.90;;;;;;5135921;27;20046;-57
2023/04/13 06:37:35;;;;;;;5.38;2.40;;;7.30;99.90;;;;;;5135380;27;20533;-57
2023/04/13 06:40:11;;;;;;;6.38;1.90;;;7.20;99.90;;;;;;5134873;27;20031;-58
2023/04/13 06:42:39;;;;;;;5.13;2.13;;;7.20;99.90;;;;;;5101634;27;20100;-57
2023/04/13 06:45:09;;;;;;;4.40;1.92;;;7.20;99.90;;;;;;5117406;27;20158;-57
2023/04/13 06:47:36;;;;;;;8.77;2.17;;;7.20;99.90;;;;;;5135365;27;20070;-57
2023/04/13 06:50:05;;;;;;;5.32;2.25;;;7.20;99.90;;;;;;5135362;27;20113;-58
2023/04/13 06:52:32;;;;;;;4.03;1.90;;;7.20;99.90;;;;;;5135121;27;20499;-57
2023/04/13 06:54:58;;;;;;;4.80;2.10;;;7.20;99.90;;;;;;5135535;27;20039;-57
2023/04/13 06:57:24;;;;;;;4.55;2.00;;;7.20;99.90;;;;;;5135178;27;20395;-57
2023/04/13 06:59:49;;;;;;;6.47;2.67;;;7.20;99.90;;;;;;5135196;27;20039;-57
2023/04/13 07:02:16;;;;;;;8.05;3.47;;;7.20;99.90;;;;;;5135163;27;20095;-57
2023/04/13 07:04:41;;;;;;;9.68;3.20;;;7.20;99.90;;;;;;5116669;27;20493;-57
2023/04/13 07:07:07;;;;;;;9.85;3.10;;;7.20;99.90;;;;;;5135420;27;20076;-57
2023/04/13 07:09:33;;;;;;;7.95;3.42;;;7.20;99.90;;;;;;5134877;27;20066;-57
2023/04/13 07:12:06;;;;;;;10.18;3.40;;;7.10;99.90;;;;;;5099508;27;20039;-58
2023/04/13 07:14:36;;;;;;;7.38;3.08;;;7.20;99.90;;;;;;5134654;27;20039;-57
2023/04/13 07:17:03;;;;;;;8.18;3.72;;;7.30;99.90;;;;;;5135000;27;20223;-58
2023/04/13 07:19:32;;;;;;;8.48;3.10;;;7.50;99.90;;;;;;5135256;27;20078;-58
2023/04/13 07:21:59;;;;;;;12.15;3.88;;;7.70;99.90;;;;;;5116184;27;20039;-57
2023/04/13 07:24:26;;;;;;;7.82;3.53;;;7.70;99.90;;;;;;5134975;27;20031;-58
2023/04/13 07:26:52;;;;;;;5.85;3.33;;;7.70;99.90;;;;;;5134467;27;20042;-58
2023/04/13 07:29:18;;;;;;;8.23;3.53;;;8.10;99.90;;;;;;5099053;27;20031;-57
2023/04/13 07:31:44;;;;;;;6.35;3.40;;;8.40;99.90;;;;;;5116062;27;20043;-58
2023/04/13 07:34:11;;;;;;;9.30;3.50;;;8.30;99.90;;;;;;5116230;27;20087;-58
2023/04/13 07:36:36;;;;;;;11.73;3.47;;;8.20;99.90;;;;;;5098793;27;20035;-58
2023/04/13 07:39:02;;;;;;;7.40;3.50;;;8.10;99.90;;;;;;5134377;27;20035;-57
2023/04/13 07:41:28;;;;;;;7.30;3.25;;;8.00;99.90;;;;;;5115993;27;20046;-58
2023/04/13 07:43:54;;;;;;;5.45;3.30;;;7.90;99.90;;;;;;5134358;27;20043;-58
2023/04/13 07:46:25;;;;;;;9.15;2.90;;;8.00;99.90;;;;;;5134438;27;20039;-58
2023/04/13 07:48:52;;;;;;;11.23;3.80;;;7.90;99.90;;;;;;5134188;27;20035;-58
2023/04/13 07:51:19;;;;;;;7.32;3.00;;;8.30;99.90;;;;;;5133707;27;20080;-58
2023/04/13 07:53:45;;;;;;;7.88;2.92;;;8.50;99.90;;;;;;5133970;27;20039;-58
2023/04/13 07:56:11;;;;;;;8.43;3.38;;;8.50;99.90;;;;;;5134043;27;20043;-58
2023/04/13 07:58:36;;;;;;;8.35;2.53;;;8.50;99.90;;;;;;5133797;27;20481;-57
2023/04/13 08:01:02;;;;;;;7.50;3.13;;;8.60;99.90;;;;;;5133777;27;20126;-58
2023/04/13 08:03:35;;;;;;;6.03;2.65;;;8.50;99.90;;;;;;5134063;27;20477;-58
2023/04/13 08:06:01;;;;;;;7.38;2.50;;;8.50;99.90;;;;;;5133909;27;20445;-58
2023/04/13 08:08:28;;;;;;;7.65;2.55;;;8.60;99.90;;;;;;5133739;27;20069;-58
2023/04/13 08:10:54;;;;;;;7.10;2.50;;;8.60;99.90;;;;;;5133883;27;20061;-58
2023/04/13 08:13:20;;;;;;;5.28;1.60;;;8.60;99.90;;;;;;5115153;27;20127;-58
2023/04/13 08:15:46;;;;;;;7.38;2.03;;;8.70;99.90;;;;;;5115386;27;20122;-58
2023/04/13 08:18:12;;;;;;;5.68;1.98;;;8.70;99.90;;;;;;5133564;27;20585;-58
2023/04/13 08:20:37;;;;;;;5.43;2.10;;;8.70;99.90;;;;;;5133782;27;20519;-58
2023/04/13 08:23:04;;;;;;;7.60;2.10;;;8.60;99.90;;;;;;5133832;27;20892;-58
2023/04/13 08:25:30;;;;;;;4.53;1.40;;;8.70;99.90;;;;;;5133643;27;20080;-59
2023/04/13 08:27:56;;;;;;;4.90;1.63;;;8.60;99.90;;;;;;5133411;27;20073;-60
2023/04/13 08:30:22;;;;;;;3.30;1.40;;;8.50;99.90;;;;;;5132939;27;20130;-58
2023/04/13 08:32:47;;;;;;;3.78;1.45;;;8.40;99.90;;;;;;5133075;27;20130;-58
2023/04/13 08:35:14;;;;;;;4.70;1.40;;;8.40;99.90;;;;;;5133161;27;20042;-58
2023/04/13 08:37:40;;;;;;;6.22;1.38;;;8.60;99.90;;;;;;5133493;27;20038;-58
2023/04/13 08:40:10;;;;;;;3.50;1.30;;;8.60;99.90;;;;;;5133174;27;20418;-58
2023/04/13 08:42:37;;;;;;;7.07;1.67;;;8.70;99.90;;;;;;5133323;27;20062;-58
2023/04/13 08:45:04;;;;;;;4.53;1.48;;;8.70;99.90;;;;;;5133199;27;20046;-58
2023/04/13 08:47:29;;;;;;;5.93;1.52;;;8.70;99.90;;;;;;5133714;27;20043;-58
2023/04/13 08:49:58;;;;;;;3.58;1.45;;;8.80;99.90;;;;;;5145879;27;20377;-59
2023/04/13 08:52:25;;;;;;;4.17;1.87;;;8.80;99.90;;;;;;5134695;27;20054;-58
2023/04/13 08:54:54;;;;;;;4.95;1.30;;;8.70;99.90;;;;;;5134203;27;20045;-58
2023/04/13 08:57:20;;;;;;;;;;;8.70;99.90;;;;;;5146873;27;20065;-57
2023/04/13 08:59:53;;;;;;;2.65;1.23;;;8.60;99.90;;;;;;5146809;27;20390;-57
2023/04/13 09:02:23;;;;;;;5.15;1.48;;;8.60;99.90;;;;;;5148486;27;20027;-58
2023/04/13 09:04:51;;;;;;;5.68;1.15;;;8.60;99.90;;;;;;5133326;27;20464;-57
2023/04/13 09:07:26;;;;;;;3.45;1.10;;;8.70;99.90;;;;;;5152641;27;20032;-58
2023/04/13 09:09:59;;;;;;;4.35;1.08;;;8.70;99.90;;;;;;5152441;27;20042;-58
2023/04/13 09:12:28;;;;;;;3.30;0.90;;;8.70;99.90;;;;;;5154309;27;20042;-57
2023/04/13 09:14:54;;;;;;;4.47;1.27;;;8.70;99.90;;;;;;5129910;27;20041;-58
2023/04/13 09:17:27;;;;;;;4.55;1.42;;;8.70;99.90;;;;;;5147471;27;20038;-58
2023/04/13 09:19:55;;;;;;;2.80;1.10;;;8.80;99.90;;;;;;5147802;27;20113;-58
2023/04/13 09:22:20;;;;;;;2.50;1.13;;;8.90;99.90;;;;;;5128996;27;20035;-58
2023/04/13 09:24:47;;;;;;;5.40;1.40;;;9.00;99.90;;;;;;5128859;27;20364;-58
2023/04/13 09:27:22;;;;;;;5.97;1.83;;;9.30;99.90;;;;;;5146277;27;20412;-59
2023/04/13 09:29:53;;;;;;;5.15;1.83;;;9.40;99.90;;;;;;5161043;27;20392;-59
2023/04/13 09:32:26;;;;;;;5.07;1.30;;;9.40;99.90;;;;;;5122699;27;20084;-59
2023/04/13 09:35:02;;;;;;;2.80;1.20;;;9.30;99.90;;;;;;5122000;27;20055;-59
2023/04/13 09:37:29;;;;;;;4.10;1.35;;;9.20;99.90;;;;;;5122166;27;20068;-59
2023/04/13 09:39:55;;;;;;;4.43;1.45;;;9.20;99.90;;;;;;5106540;27;20061;-59
2023/04/13 09:42:21;;;;;;;5.20;1.40;;;9.10;99.90;;;;;;5122753;27;20035;-58
2023/04/13 09:44:59;;;;;;;7.05;1.98;;;8.90;99.90;;;;;;5135103;27;20042;-58
2023/04/13 09:47:34;;;;;;;4.60;1.10;;;8.80;99.90;;;;;;5128940;27;20828;-59
2023/04/13 09:50:01;;;;;;;1.65;0.60;;;8.60;99.90;;;;;;5117431;27;20037;-58
2023/04/13 09:52:26;;;;;;;3.65;0.50;;;8.50;99.90;;;;;;5117227;27;20520;-59
2023/04/13 09:54:59;;;;;;;1.80;0.40;;;8.50;99.90;;;;;;5109434;27;20082;-59
2023/04/13 09:57:28;;;;;;;2.30;0.30;;;8.40;99.90;;;;;;5113624;28;20068;-59
2023/04/13 09:59:56;;;;;;;0.57;0.30;;;8.30;99.90;;;;;;5114459;28;20465;-59
2023/04/13 10:02:22;;;;;;;1.38;0.45;;;8.30;99.90;;;;;;5114620;27;20431;-59
2023/04/13 10:04:48;;;;;;;2.60;0.30;;;8.10;99.90;;;;;;5113741;28;20078;-59
2023/04/13 10:07:15;;;;;;;2.53;0.77;;;8.00;99.90;;;;;;5095768;28;20493;-59
2023/04/13 10:09:43;;;;;;;1.40;0.50;;;8.00;99.90;;;;;;5134464;27;20077;-59
2023/04/13 10:12:10;;;;;;;2.45;0.47;;;7.90;99.90;;;;;;5115370;28;20043;-59
2023/04/13 10:14:41;;;;;;;0.82;0.30;;;8.10;99.90;;;;;;5114726;28;20082;-59
2023/04/13 10:17:17;;;;;;;2.60;0.60;;;8.30;99.90;;;;;;5109926;28;20123;-59
2023/04/13 10:19:50;;;;;;;1.35;0.50;;;8.40;99.90;;;;;;5107324;28;20050;-59
2023/04/13 10:22:16;;;;;;;1.45;0.40;;;8.80;99.90;;;;;;5112289;28;20486;-59
2023/04/13 10:24:43;;;;;;;0.65;0.40;;;9.30;99.90;;;;;;5113414;28;20376;-59
2023/04/13 10:27:18;;;;;;;1.13;0.50;;;9.60;99.90;;;;;;5114750;27;20035;-60
2023/04/13 10:29:45;;;;;;;2.33;0.60;;;9.90;99.90;;;;;;5114990;28;20040;-59
2023/04/13 10:32:22;;;;;;;0.90;0.40;;;10.20;99.90;;;;;;5117260;27;20047;-60
2023/04/13 10:34:48;;;;;;;2.35;0.40;;;10.20;99.90;;;;;;5125941;27;20040;-59
2023/04/13 10:37:20;;;;;;;0.50;0.50;;;10.10;99.90;;;;;;5126747;27;20076;-60
2023/04/13 10:39:46;;;;;;;2.20;0.60;;;9.90;99.90;;;;;;5122479;27;20043;-59
2023/04/13 10:42:12;;;;;;;2.88;0.77;;;9.90;99.90;;;;;;5125260;27;20508;-59
2023/04/13 10:44:47;;;;;;;3.10;0.60;;;9.90;99.90;;;;;;5114749;28;20042;-60
2023/04/13 10:47:14;;;;;;;2.80;0.60;;;9.90;99.90;;;;;;5125465;27;20035;-59
2023/04/13 10:49:41;;;;;;;3.97;0.70;;;10.40;99.90;;;;;;5122372;27;20039;-59
2023/04/13 10:52:09;;;;;;;2.55;0.70;;;10.60;99.90;;;;;;5129514;27;20122;-60
2023/04/13 10:54:37;;;;;;;4.10;0.70;;;10.70;99.90;;;;;;5125530;27;20039;-60
2023/04/13 10:57:05;;;;;;;1.33;0.73;;;10.90;99.90;;;;;;5126930;27;20046;-60
2023/04/13 10:59:40;;;;;;;4.32;0.70;;;10.80;99.90;;;;;;5125435;27;20903;-59
2023/04/13 11:02:13;;;;;;;1.42;0.73;;;10.70;99.90;;;;;;5124674;27;20055;-59
2023/04/13 11:04:48;;;;;;;3.00;0.80;;;10.50;99.90;;;;;;5123608;27;20055;-59
2023/04/13 11:07:20;;;;;;;5.90;0.85;;;10.40;99.90;;;;;;5127425;27;20039;-59
2023/04/13 11:09:57;;;;;;;2.38;0.60;;;10.00;99.90;;;;;;5131306;27;20414;-59
2023/04/13 11:12:23;;;;;;;2.92;0.70;;;9.60;99.90;;;;;;5126782;27;20561;-60
2023/04/13 11:14:50;;;;;;;3.58;0.75;;;9.50;99.90;;;;;;5128847;27;20047;-59
2023/04/13 11:17:17;;;;;;;3.67;1.13;;;9.20;99.90;;;;;;5128009;27;20031;-59
2023/04/13 11:19:50;;;;;;;2.58;1.20;;;9.10;99.90;;;;;;5132376;27;20038;-60
2023/04/13 11:22:18;;;;;;;3.55;0.80;;;9.10;99.90;;;;;;5130060;27;20059;-59
2023/04/13 11:24:45;;;;;;;3.22;0.93;;;9.20;99.90;;;;;;5130516;27;20451;-59
2023/04/13 11:27:22;;;;;;;2.70;1.13;;;9.30;99.90;;;;;;5127604;27;20480;-59
2023/04/13 11:30:05;;;;;;;9.23;1.58;;;9.30;99.90;;;;;;5128441;27;20058;-59
2023/04/13 11:32:38;;;;;;;9.73;1.83;;;9.50;99.90;;;;;;5138842;27;20050;-59
2023/04/13 11:35:17;;;;;;;11.30;1.77;;;9.60;99.90;;;;;;5139243;27;20026;-59
2023/04/13 11:37:47;;;;;;;10.88;1.98;;;9.80;99.90;;;;;;5128096;27;20039;-59
2023/04/13 11:40:16;;;;;;;11.52;1.95;;;9.80;99.90;;;;;;5141550;27;20046;-59
2023/04/13 11:42:43;;;;;;;15.63;2.78;;;10.00;99.90;;;;;;5143723;27;20047;-59
2023/04/13 11:45:10;;;;;;;11.00;2.65;;;10.00;99.90;;;;;;5134556;27;20071;-59
2023/04/13 11:47:36;;;;;;;11.10;2.60;;;10.00;99.90;;;;;;5151876;27;20066;-58
2023/04/13 11:50:05;;;;;;;13.55;2.70;;;9.90;99.90;;;;;;5154983;27;20071;-59
2023/04/13 11:52:31;;;;;;;;;;;10.00;99.90;;;;;;5155072;27;20039;-59
2023/04/13 11:54:57;;;;;;;13.25;3.33;;;10.20;99.90;;;;;;5146514;27;20333;-59
2023/04/13 11:57:23;;;;;;;10.45;2.13;;;10.50;99.90;;;;;;5146390;27;20031;-59
2023/04/13 11:59:52;;;;;;;15.70;2.42;;;10.60;99.90;;;;;;5144911;27;20057;-59
2023/04/13 12:02:30;;;;;;;15.18;2.50;;;10.70;99.90;;;;;;5144476;27;20529;-59
2023/04/13 12:04:56;;;;;;;12.45;2.47;;;10.70;99.90;;;;;;5142366;27;20035;-59
2023/04/13 12:07:23;;;;;;;13.27;2.25;;;10.70;99.90;;;;;;5127222;27;20039;-59
2023/04/13 12:09:52;;;;;;;6.50;1.52;;;10.60;99.90;;;;;;5125200;27;20031;-60
2023/04/13 12:12:21;;;;;;;13.35;2.60;;;10.70;99.90;;;;;;5147456;27;20035;-59
2023/04/13 12:14:53;;;;;;;16.95;2.47;;;10.50;99.90;;;;;;5147039;27;20039;-59
2023/04/13 12:17:19;;;;;;;11.90;2.28;;;10.50;99.90;;;;;;5143781;27;20045;-59
2023/04/13 12:19:45;;;;;;;16.90;3.42;;;10.40;99.90;;;;;;5144362;27;20030;-59
2023/04/13 12:22:11;;;;;;;15.45;2.35;;;10.30;99.90;;;;;;5143217;27;20035;-59
2023/04/13 12:24:37;;;;;;;14.85;2.75;;;10.30;99.90;;;;;;5142771;27;20035;-59
2023/04/13 12:27:03;;;;;;;11.90;2.47;;;10.30;99.90;;;;;;5144114;27;20042;-59
2023/04/13 12:29:29;;;;;;;14.77;2.30;;;10.40;99.90;;;;;;5144602;27;20034;-59
2023/04/13 12:32:02;;;;;;;12.73;2.50;;;10.30;99.90;;;;;;5144613;27;20050;-59
2023/04/13 12:34:28;;;;;;;12.82;2.35;;;10.30;99.90;;;;;;5143220;27;20041;-60
2023/04/13 12:36:54;;;;;;;8.23;2.65;;;10.30;99.90;;;;;;5144576;27;20039;-60
2023/04/13 12:39:20;;;;;;;11.20;2.08;;;10.40;99.90;;;;;;5126796;27;20066;-59
2023/04/13 12:41:46;;;;;;;8.73;1.90;;;10.40;99.90;;;;;;5127175;27;20373;-60
2023/04/13 12:44:11;;;;;;;10.35;2.03;;;10.30;99.90;;;;;;5148088;27;20038;-59
2023/04/13 12:46:38;;;;;;;15.63;2.55;;;10.30;99.90;;;;;;5146381;27;20043;-59
2023/04/13 12:49:03;;;;;;;8.27;2.22;;;10.20;99.90;;;;;;5142986;27;20468;-58
2023/04/13 12:51:30;;;;;;;11.20;1.95;;;10.20;99.90;;;;;;5144801;27;20062;-59
2023/04/13 12:53:56;;;;;;;14.55;2.53;;;10.30;99.90;;;;;;5132697;27;20365;-58
2023/04/13 12:56:23;;;;;;;13.27;2.75;;;10.20;99.90;;;;;;5132459;27;20095;-58
2023/04/13 12:58:49;;;;;;;9.50;2.72;;;10.20;99.90;;;;;;5112444;28;20043;-59